Time;durP1;ratioP1;P1;durP2;ratioP2;P2;SDS_P1;SDS_P2;PMS_P1;PMS_P2;Temp;Humidity;BMP_temperature;BMP_pressure;BME280_temperature;BME280_humidity;BME280_pressure;Samples;Min_cycle;Max_cycle;Signal;HPM_P1;HPM_P2
2021/09/21 00:00:06;;;;;;;6.06;5.25;;;;;;;11.27;64.94;100530.09;434789;118;922534;-80
2021/09/21 00:01:10;;;;;;;6.04;5.56;;;;;;;11.30;64.91;100529.67;435341;119;930777;-79
2021/09/21 00:02:14;;;;;;;6.61;5.26;;;;;;;11.32;64.84;100529.42;454538;114;922734;-80
2021/09/21 00:03:18;;;;;;;5.54;5.04;;;;;;;11.34;64.72;100532.78;455360;116;922949;-80
2021/09/21 00:04:26;;;;;;;5.71;5.29;;;;;;;11.33;64.56;100533.83;454822;116;922459;-79
2021/09/21 00:05:27;;;;;;;6.34;5.49;;;;;;;11.31;64.46;100534.05;455153;114;922588;-81
2021/09/21 00:06:31;;;;;;;6.31;5.56;;;;;;;11.29;64.40;100539.75;454978;114;923064;-79
2021/09/21 00:07:35;;;;;;;5.94;5.44;;;;;;;11.27;64.42;100541.01;454912;115;922784;-79
2021/09/21 00:08:39;;;;;;;6.78;5.56;;;;;;;11.25;64.39;100545.84;454851;115;922554;-80
2021/09/21 00:09:45;;;;;;;5.75;5.12;;;;;;;11.23;64.38;100550.70;455382;116;922829;-80
2021/09/21 00:10:49;;;;;;;5.93;5.46;;;;;;;11.21;64.34;100550.08;455643;114;922679;-78
2021/09/21 00:11:52;;;;;;;6.22;5.69;;;;;;;11.18;64.42;100545.91;455818;116;922565;-80
2021/09/21 00:12:55;;;;;;;6.02;5.42;;;;;;;11.15;64.68;100535.41;454997;116;922361;-79
2021/09/21 00:14:00;;;;;;;5.04;4.58;;;;;;;11.15;64.68;100535.41;456075;115;930120;-79
2021/09/21 00:15:08;;;;;;;6.01;5.51;;;;;;;11.16;64.72;100538.98;455837;114;922198;-80
2021/09/21 00:16:12;;;;;;;5.76;5.33;;;;;;;11.17;64.71;100535.20;454711;116;922477;-81
2021/09/21 00:17:16;;;;;;;6.31;5.58;;;;;;;11.18;64.68;100529.53;455120;114;922563;-80
2021/09/21 00:18:20;;;;;;;5.31;4.79;;;;;;;11.19;64.66;100525.72;454818;115;922404;-79
2021/09/21 00:19:24;;;;;;;7.65;5.29;;;;;;;11.22;64.54;100533.48;455009;116;922909;-79
2021/09/21 00:20:29;;;;;;;5.94;5.44;;;;;;;11.23;64.51;100535.17;455359;116;922717;-78
2021/09/21 00:21:33;;;;;;;6.86;6.22;;;;;;;11.22;64.37;100540.84;455355;116;923067;-79
2021/09/21 00:22:37;;;;;;;5.59;5.17;;;;;;;11.20;64.30;100534.75;455287;114;930685;-81
2021/09/21 00:23:41;;;;;;;6.25;5.79;;;;;;;11.17;64.33;100535.20;454674;114;930489;-79
2021/09/21 00:24:45;;;;;;;6.02;5.45;;;;;;;11.16;64.45;100534.36;454999;116;930581;-80
2021/09/21 00:25:48;;;;;;;6.40;5.85;;;;;;;11.18;64.52;100536.88;446680;118;922629;-79
2021/09/21 00:26:53;;;;;;;6.41;5.82;;;;;;;11.18;64.51;100543.18;446403;116;923022;-80
2021/09/21 00:27:57;;;;;;;6.31;5.73;;;;;;;11.18;64.40;100550.53;455390;116;922937;-78
2021/09/21 00:29:01;;;;;;;5.88;5.45;;;;;;;11.15;64.30;100559.98;455280;114;922920;-79
2021/09/21 00:30:06;;;;;;;5.70;5.28;;;;;;;11.12;64.28;100557.70;454725;114;922499;-79
2021/09/21 00:31:11;;;;;;;6.87;6.23;;;;;;;11.08;64.26;100556.44;455198;116;922917;-79
2021/09/21 00:32:24;;;;;;;6.22;5.72;;;;;;;11.06;64.31;100555.00;455374;114;922671;-80
2021/09/21 00:33:23;;;;;;;5.97;5.43;;;;;;;11.03;64.39;100549.96;453387;116;922489;-80
2021/09/21 00:34:42;;;;;;;5.57;5.17;;;;;;;11.00;64.46;100550.41;455260;116;923366;-79
2021/09/21 00:35:47;;;;;;;6.04;5.59;;;;;;;10.98;64.64;100539.71;445683;116;923294;-80
2021/09/21 00:36:53;;;;;;;6.50;5.44;;;;;;;11.00;64.77;100547.69;449255;116;923222;-81
2021/09/21 00:37:57;;;;;;;6.25;5.78;;;;;;;11.02;64.75;100546.42;455098;114;922659;-79
2021/09/21 00:39:01;;;;;;;6.49;5.93;;;;;;;11.05;64.59;100545.14;455415;116;923032;-79
2021/09/21 00:40:06;;;;;;;7.46;6.40;;;;;;;11.06;64.53;100544.09;455399;116;922596;-80
2021/09/21 00:41:11;;;;;;;9.02;6.12;;;;;;;11.05;64.49;100535.06;454569;114;922927;-80
2021/09/21 00:42:18;;;;;;;6.73;6.14;;;;;;;11.05;64.59;100539.68;455147;114;922580;-81
2021/09/21 00:43:23;;;;;;;6.59;5.99;;;;;;;11.06;64.75;100527.72;454582;116;922934;-79
2021/09/21 00:44:27;;;;;;;6.77;6.20;;;;;;;11.10;64.80;100523.48;455367;116;922842;-79
2021/09/21 00:45:31;;;;;;;6.22;5.72;;;;;;;11.15;64.81;100523.66;455290;116;922543;-80
2021/09/21 00:46:37;;;;;;;6.61;5.81;;;;;;;11.20;64.76;100521.94;455045;116;922575;-78
2021/09/21 00:47:40;;;;;;;6.55;6.04;;;;;;;11.27;64.62;100521.91;455364;116;922585;-79
2021/09/21 00:48:46;;;;;;;6.47;6.08;;;;;;;11.32;64.51;100529.42;455396;116;922843;-80
2021/09/21 00:49:49;;;;;;;6.30;5.76;;;;;;;11.34;64.44;100527.32;454871;116;922976;-79
2021/09/21 00:50:53;;;;;;;6.49;5.63;;;;;;;11.37;64.37;100526.87;455375;116;922643;-79
2021/09/21 00:51:58;;;;;;;5.88;5.38;;;;;;;11.39;64.30;100527.49;455102;116;922995;-80
2021/09/21 00:53:01;;;;;;;6.60;5.62;;;;;;;11.42;64.18;100516.95;454991;114;923108;-80
2021/09/21 00:54:05;;;;;;;6.09;5.50;;;;;;;11.45;64.00;100519.26;455384;116;922451;-80
2021/09/21 00:55:09;;;;;;;5.66;5.26;;;;;;;11.48;63.94;100517.96;455378;116;930527;-79
2021/09/21 00:56:15;;;;;;;6.78;6.08;;;;;;;11.50;63.71;100521.31;455292;114;922619;-80
2021/09/21 00:57:18;;;;;;;6.77;6.04;;;;;;;11.47;63.56;100538.97;455432;114;923031;-80
2021/09/21 00:58:22;;;;;;;6.76;6.20;;;;;;;11.42;63.38;100536.06;454394;114;922814;-79
2021/09/21 00:59:25;;;;;;;6.83;6.33;;;;;;;11.34;63.32;100536.35;456125;116;930032;-79
2021/09/21 01:00:30;;;;;;;8.74;5.91;;;;;;;11.27;63.47;100533.66;448333;116;922176;-80
2021/09/21 01:01:34;;;;;;;7.09;6.49;;;;;;;11.22;63.70;100536.22;448021;114;923136;-80
2021/09/21 01:02:38;;;;;;;7.24;6.38;;;;;;;11.19;63.84;100533.10;455949;114;930875;-80
2021/09/21 01:03:42;;;;;;;7.31;6.62;;;;;;;11.16;63.80;100544.44;456385;114;922074;-79
2021/09/21 01:04:46;;;;;;;7.62;6.92;;;;;;;11.12;63.78;100546.78;455200;116;922922;-80
2021/09/21 01:05:50;;;;;;;7.61;6.52;;;;;;;11.06;63.86;100552.27;454795;114;930628;-79
2021/09/21 01:06:53;;;;;;;7.32;5.81;;;;;;;11.01;64.01;100554.83;455349;116;922800;-79
2021/09/21 01:07:57;;;;;;;7.34;6.74;;;;;;;10.97;64.08;100557.12;454905;116;930382;-79
2021/09/21 01:09:01;;;;;;;12.31;6.62;;;;;;;10.93;64.14;100566.81;454838;114;922722;-79
2021/09/21 01:10:08;;;;;;;6.63;5.92;;;;;;;10.88;64.20;100562.02;454411;114;930573;-79
2021/09/21 01:11:12;;;;;;;6.72;6.13;;;;;;;10.83;64.25;100567.28;454048;116;923063;-79
2021/09/21 01:12:16;;;;;;;6.84;5.78;;;;;;;10.79;64.30;100568.78;454366;114;922499;-79
2021/09/21 01:13:20;;;;;;;6.96;5.57;;;;;;;10.76;64.43;100571.92;446974;118;923132;-82
2021/09/21 01:14:24;;;;;;;6.16;5.71;;;;;;;10.75;64.55;100570.25;446685;116;930588;-80
2021/09/21 01:15:27;;;;;;;7.49;5.42;;;;;;;10.75;64.63;100563.98;454255;116;930572;-79
2021/09/21 01:16:32;;;;;;;6.05;5.55;;;;;;;10.76;64.68;100571.92;452949;116;922989;-79
2021/09/21 01:17:36;;;;;;;6.08;5.51;;;;;;;10.76;64.62;100563.74;454225;116;930748;-80
2021/09/21 01:18:40;;;;;;;6.92;6.21;;;;;;;10.76;64.59;100565.63;453730;116;930589;-79
2021/09/21 01:19:44;;;;;;;6.97;5.26;;;;;;;10.74;64.65;100574.05;454164;116;922608;-81
2021/09/21 01:20:48;;;;;;;7.19;5.96;;;;;;;10.72;64.69;100576.14;454374;116;923140;-80
2021/09/21 01:21:53;;;;;;;8.23;5.70;;;;;;;10.71;64.74;100573.63;454415;116;922558;-78
2021/09/21 01:22:57;;;;;;;6.02;5.52;;;;;;;10.71;64.74;100568.17;454348;116;930580;-80
2021/09/21 01:24:00;;;;;;;6.45;5.86;;;;;;;10.69;64.78;100567.56;454053;116;922518;-79
2021/09/21 01:25:06;;;;;;;6.56;5.86;;;;;;;10.67;64.87;100575.95;454505;116;922500;-81
2021/09/21 01:26:10;;;;;;;6.91;5.94;;;;;;;10.68;64.87;100579.52;453881;116;930527;-79
2021/09/21 01:27:14;;;;;;;6.38;5.79;;;;;;;10.70;64.98;100569.22;454120;116;922984;-80
2021/09/21 01:28:18;;;;;;;6.90;5.93;;;;;;;10.71;64.95;100574.47;454325;116;922417;-80
2021/09/21 01:29:21;;;;;;;6.46;5.93;;;;;;;10.72;64.95;100562.51;454381;116;930643;-79
2021/09/21 01:30:27;;;;;;;6.24;5.74;;;;;;;10.74;64.96;100563.14;454111;116;922589;-79
2021/09/21 01:31:31;;;;;;;6.87;5.86;;;;;;;10.76;65.00;100555.56;454489;116;922493;-79
2021/09/21 01:32:35;;;;;;;6.96;6.36;;;;;;;10.79;65.11;100557.03;454432;116;922752;-79
2021/09/21 01:33:39;;;;;;;6.54;5.95;;;;;;;10.83;65.17;100558.27;454442;116;923082;-79
2021/09/21 01:34:43;;;;;;;7.01;6.23;;;;;;;10.86;65.06;100563.30;452634;116;922840;-79
2021/09/21 01:35:46;;;;;;;6.40;5.66;;;;;;;10.88;65.03;100564.74;454318;116;922603;-79
2021/09/21 01:36:50;;;;;;;7.41;5.97;;;;;;;10.90;64.92;100564.53;453140;116;923104;-80
2021/09/21 01:37:54;;;;;;;6.07;5.51;;;;;;;10.92;64.95;100564.30;454242;116;923100;-80
2021/09/21 01:38:58;;;;;;;6.56;6.03;;;;;;;10.93;65.05;100564.09;453905;116;930549;-80
2021/09/21 01:40:02;;;;;;;7.92;6.57;;;;;;;10.94;64.98;100565.77;453200;116;923736;-79
2021/09/21 01:41:05;;;;;;;7.22;6.18;;;;;;;10.95;64.95;100566.61;454287;114;922951;-80
2021/09/21 01:42:10;;;;;;;6.20;5.64;;;;;;;10.95;64.92;100561.14;454317;116;922596;-79
2021/09/21 01:43:13;;;;;;;6.29;5.75;;;;;;;10.96;64.81;100563.66;454387;116;930534;-79
2021/09/21 01:44:18;;;;;;;6.14;5.66;;;;;;;10.96;64.81;100563.66;453640;116;922546;-80
2021/09/21 01:45:21;;;;;;;6.21;5.72;;;;;;;10.97;64.77;100559.86;453676;116;930385;-80
2021/09/21 01:46:26;;;;;;;6.75;6.03;;;;;;;10.97;64.74;100565.31;454562;116;922283;-79
2021/09/21 01:47:29;;;;;;;5.97;5.45;;;;;;;10.99;64.85;100557.76;455193;116;922413;-78
2021/09/21 01:48:33;;;;;;;9.97;6.09;;;;;;;11.04;64.94;100554.38;454798;116;922057;-79
2021/09/21 01:50:01;;;;;;;7.03;5.99;;;;;;;11.10;64.86;100557.07;455358;114;930604;-78
2021/09/21 01:50:56;;;;;;;8.21;6.19;;;;;;;11.14;64.71;100560.19;451720;116;922341;-80
2021/09/21 01:53:22;;;;;;;6.83;5.79;;;;;;;11.17;64.56;100559.77;454229;116;922857;-79
2021/09/21 01:54:45;;;;;;;6.91;5.90;;;;;;;11.16;64.50;100560.81;453030;116;922644;-80
2021/09/21 01:58:47;;;;;;;6.20;5.49;;;;;;;11.11;64.69;100566.94;454055;116;922596;-78
2021/09/21 01:59:26;;;;;;;5.50;4.95;;;;;;;11.11;64.79;100566.09;444637;116;922567;-79
2021/09/21 02:00:31;;;;;;;5.68;5.16;;;;;;;11.10;64.89;100562.52;453770;116;922925;-80
2021/09/21 02:01:36;;;;;;;5.29;4.81;;;;;;;11.11;64.92;100563.37;453573;116;922552;-79
2021/09/21 02:02:40;;;;;;;6.77;4.66;;;;;;;11.12;64.92;100567.77;453851;116;930612;-81
2021/09/21 02:03:44;;;;;;;6.09;4.79;;;;;;;11.13;64.76;100573.02;454367;116;922556;-80
2021/09/21 02:04:47;;;;;;;6.96;5.48;;;;;;;11.14;64.64;100582.02;454199;116;922662;-79
2021/09/21 02:05:51;;;;;;;5.00;4.54;;;;;;;11.14;64.61;100580.13;454074;116;930438;-81
2021/09/21 02:06:56;;;;;;;6.44;4.81;;;;;;;11.16;64.50;100580.75;453932;116;922598;-79
2021/09/21 02:07:59;;;;;;;4.58;4.18;;;;;;;11.20;64.58;100583.88;454479;116;922983;-79
2021/09/21 02:09:05;;;;;;;5.67;5.13;;;;;;;11.25;64.66;100575.86;454506;116;922882;-80
2021/09/21 02:10:09;;;;;;;5.74;5.19;;;;;;;11.32;64.51;100573.94;454354;116;922936;-80
2021/09/21 02:11:13;;;;;;;6.39;5.03;;;;;;;11.38;64.36;100570.33;454384;116;922561;-80
2021/09/21 02:12:17;;;;;;;5.29;4.80;;;;;;;11.42;64.24;100570.72;454234;114;930675;-78
2021/09/21 02:13:20;;;;;;;5.16;4.67;;;;;;;11.47;64.11;100562.70;453460;116;922584;-78
2021/09/21 02:14:24;;;;;;;6.65;5.78;;;;;;;11.51;63.96;100553.03;454030;116;923002;-80
2021/09/21 02:15:31;;;;;;;5.51;5.12;;;;;;;11.55;63.86;100551.52;456554;113;922633;-78
2021/09/21 02:16:34;;;;;;;5.12;4.70;;;;;;;11.59;63.78;100545.39;456682;113;930595;-78
2021/09/21 02:17:38;;;;;;;5.15;4.75;;;;;;;11.65;63.71;100549.96;456592;113;922765;-80
2021/09/21 02:18:41;;;;;;;5.69;5.21;;;;;;;11.73;63.61;100548.02;457235;116;922774;-79
2021/09/21 02:19:45;;;;;;;5.87;5.19;;;;;;;11.79;63.44;100542.54;457239;116;922631;-78
2021/09/21 02:20:48;;;;;;;5.28;4.83;;;;;;;11.85;63.34;100540.80;457190;113;930419;-80
2021/09/21 02:21:52;;;;;;;5.53;5.06;;;;;;;11.91;63.21;100539.91;457154;116;930628;-80
2021/09/21 02:22:55;;;;;;;5.62;4.89;;;;;;;11.97;63.08;100538.98;457130;116;930597;-80
2021/09/21 02:24:00;;;;;;;4.93;4.25;;;;;;;12.01;62.85;100541.07;456898;116;930387;-80
2021/09/21 02:25:04;;;;;;;4.36;4.06;;;;;;;12.04;62.68;100543.34;457015;116;922467;-78
2021/09/21 02:26:07;;;;;;;4.77;4.44;;;;;;;12.06;62.54;100554.05;456546;116;922894;-79
2021/09/21 02:27:13;;;;;;;5.17;4.47;;;;;;;12.05;62.51;100542.28;457028;114;922943;-79
2021/09/21 02:28:17;;;;;;;5.33;4.91;;;;;;;12.08;62.48;100533.62;457145;116;922483;-77
2021/09/21 02:29:20;;;;;;;5.31;4.86;;;;;;;12.11;62.39;100529.61;456640;113;922889;-79
2021/09/21 02:30:24;;;;;;;5.52;5.02;;;;;;;12.16;62.31;100528.93;456943;116;922500;-77
2021/09/21 02:31:28;;;;;;;5.56;5.06;;;;;;;12.18;62.11;100538.59;457341;115;923045;-79
2021/09/21 02:32:32;;;;;;;5.00;4.60;;;;;;;12.22;62.02;100533.49;457217;114;930579;-78
2021/09/21 02:33:36;;;;;;;8.03;5.43;;;;;;;12.24;61.90;100539.58;457399;116;930548;-77
2021/09/21 02:34:44;;;;;;;5.94;5.36;;;;;;;12.25;61.75;100547.53;456908;116;931092;-79
2021/09/21 02:35:45;;;;;;;5.48;4.98;;;;;;;12.27;61.63;100541.84;457006;114;926450;-78
2021/09/21 02:36:50;;;;;;;7.76;5.61;;;;;;;12.26;61.54;100535.55;457278;115;923149;-79
2021/09/21 02:37:54;;;;;;;5.59;5.12;;;;;;;12.23;61.47;100532.44;458163;114;922772;-79
2021/09/21 02:38:57;;;;;;;6.97;5.85;;;;;;;12.17;61.51;100528.71;457021;116;930963;-77
2021/09/21 02:40:01;;;;;;;5.95;5.44;;;;;;;12.14;61.68;100531.87;457369;116;930450;-78
2021/09/21 02:41:05;;;;;;;6.16;5.69;;;;;;;12.15;61.76;100529.98;457247;115;923110;-79
2021/09/21 02:42:09;;;;;;;5.74;5.22;;;;;;;12.12;61.67;100542.22;457355;115;922552;-80
2021/09/21 02:43:12;;;;;;;6.18;5.35;;;;;;;12.07;61.64;100545.61;456958;116;922542;-79
2021/09/21 02:44:16;;;;;;;7.74;5.76;;;;;;;12.05;61.72;100549.64;457151;116;922605;-79
2021/09/21 02:45:19;;;;;;;6.54;5.17;;;;;;;11.98;61.74;100546.97;457127;116;930495;-79
2021/09/21 02:46:23;;;;;;;6.95;5.16;;;;;;;11.93;61.75;100555.00;457238;116;922461;-83
2021/09/21 02:47:27;;;;;;;5.82;5.24;;;;;;;11.88;61.92;100548.55;456873;113;922465;-79
2021/09/21 02:48:32;;;;;;;5.76;5.26;;;;;;;11.84;62.05;100550.06;457374;116;923011;-78
2021/09/21 02:49:36;;;;;;;6.19;4.85;;;;;;;11.80;62.18;100555.11;447878;118;922714;-80
2021/09/21 02:50:40;;;;;;;5.21;4.57;;;;;;;11.75;62.17;100554.11;449399;116;923201;-79
2021/09/21 02:51:45;;;;;;;5.58;4.89;;;;;;;11.75;62.17;100554.11;456652;116;923515;-80
2021/09/21 02:52:48;;;;;;;5.47;5.01;;;;;;;11.71;62.29;100559.16;457199;116;922570;-80
2021/09/21 02:53:52;;;;;;;6.07;5.28;;;;;;;11.67;62.34;100557.94;456737;116;930540;-78
2021/09/21 02:54:55;;;;;;;6.64;5.84;;;;;;;11.64;62.40;100561.09;457161;116;930526;-79
2021/09/21 02:56:01;;;;;;;5.82;5.32;;;;;;;11.59;62.49;100561.77;457024;116;930400;-78
2021/09/21 02:57:04;;;;;;;5.95;5.43;;;;;;;11.57;62.69;100554.88;456887;116;922731;-79
2021/09/21 02:58:08;;;;;;;5.61;5.07;;;;;;;11.59;62.86;100560.94;457386;113;930362;-79
2021/09/21 02:59:11;;;;;;;5.14;4.72;;;;;;;11.62;62.95;100553.16;457063;116;923322;-79
2021/09/21 03:00:22;;;;;;;6.29;5.82;;;;;;;11.65;62.91;100554.59;457106;113;923867;-80
2021/09/21 03:01:23;;;;;;;7.81;5.46;;;;;;;11.67;62.95;100557.94;457381;113;923548;-79
2021/09/21 03:02:30;;;;;;;9.57;5.71;;;;;;;11.69;62.97;100556.64;457032;113;922645;-79
2021/09/21 03:03:41;;;;;;;7.87;5.21;;;;;;;11.71;62.93;100551.80;457255;116;923058;-79
2021/09/21 03:04:42;;;;;;;6.00;5.01;;;;;;;11.74;62.91;100550.57;455815;115;922485;-78
2021/09/21 03:05:51;;;;;;;5.98;5.33;;;;;;;11.77;62.91;100558.30;457042;114;922441;-77
2021/09/21 03:06:58;;;;;;;5.93;5.43;;;;;;;11.79;62.89;100548.00;456407;114;923018;-78
2021/09/21 03:08:10;;;;;;;5.24;4.82;;;;;;;11.80;62.88;100559.77;456440;114;922827;-77
2021/09/21 03:11:56;;;;;;;6.06;5.46;;;;;;;11.71;62.94;100551.80;456650;116;922443;-80
2021/09/21 03:13:15;;;;;;;6.28;5.77;;;;;;;11.69;63.06;100548.45;456896;115;922756;-79
2021/09/21 03:18:05;;;;;;;7.49;5.57;;;;;;;11.78;63.34;100551.79;454543;116;922346;-78
2021/09/21 03:19:10;;;;;;;19.34;6.29;;;;;;;11.80;63.39;100555.11;454810;116;923529;-79
2021/09/21 03:20:15;;;;;;;7.79;5.93;;;;;;;11.80;63.28;100549.65;454108;116;922326;-78
2021/09/21 03:21:18;;;;;;;10.06;6.19;;;;;;;11.79;63.30;100558.93;454844;116;922243;-79
2021/09/21 03:22:22;;;;;;;6.81;5.47;;;;;;;11.78;63.27;100557.25;455021;116;922656;-78
2021/09/21 03:23:26;;;;;;;7.22;6.16;;;;;;;11.77;63.24;100554.73;455004;116;922485;-77
2021/09/21 03:24:30;;;;;;;6.55;5.83;;;;;;;11.75;63.23;100563.14;454983;116;922432;-78
2021/09/21 03:25:34;;;;;;;11.07;6.28;;;;;;;11.71;63.31;100554.54;446303;119;930627;-77
2021/09/21 03:26:38;;;;;;;8.48;6.61;;;;;;;11.69;63.32;100553.07;446796;116;922704;-79
2021/09/21 03:27:42;;;;;;;7.87;6.40;;;;;;;11.67;63.41;100544.28;454270;116;922453;-80
2021/09/21 03:28:45;;;;;;;8.60;6.44;;;;;;;11.65;63.50;100554.59;454579;116;922931;-78
2021/09/21 03:29:49;;;;;;;7.42;6.19;;;;;;;11.64;63.53;100551.02;454233;115;930787;-79
2021/09/21 03:30:53;;;;;;;6.98;6.35;;;;;;;11.65;63.60;100546.39;454264;114;930588;-79
2021/09/21 03:31:56;;;;;;;8.17;7.19;;;;;;;11.65;63.74;100540.92;454121;116;922466;-79
2021/09/21 03:33:00;;;;;;;7.78;6.94;;;;;;;11.65;63.75;100543.66;454201;116;930553;-77
2021/09/21 03:34:03;;;;;;;8.66;7.04;;;;;;;11.65;63.63;100554.59;453891;116;930569;-81
2021/09/21 03:35:08;;;;;;;9.87;7.36;;;;;;;11.65;63.63;100554.59;453681;116;930509;-79
2021/09/21 03:36:12;;;;;;;8.57;7.70;;;;;;;11.65;63.87;100562.78;454046;116;930551;-80
2021/09/21 03:37:16;;;;;;;9.59;7.40;;;;;;;11.63;63.90;100551.27;454447;116;923072;-80
2021/09/21 03:38:20;;;;;;;15.58;8.09;;;;;;;11.62;64.01;100552.31;454133;116;922959;-79
2021/09/21 03:39:23;;;;;;;9.24;7.86;;;;;;;11.63;64.03;100552.06;453528;116;922479;-82
2021/09/21 03:40:29;;;;;;;8.76;7.89;;;;;;;11.64;64.03;100552.91;453686;116;931072;-80
2021/09/21 03:41:32;;;;;;;8.44;7.44;;;;;;;11.65;64.00;100546.39;454144;116;922648;-79
2021/09/21 03:42:36;;;;;;;8.16;7.32;;;;;;;11.65;64.06;100544.50;453789;116;930626;-78
2021/09/21 03:43:40;;;;;;;9.32;8.46;;;;;;;11.65;63.99;100544.50;454054;116;930575;-78
2021/09/21 03:44:44;;;;;;;10.53;7.56;;;;;;;11.67;63.98;100538.83;454642;116;922522;-77
2021/09/21 03:45:47;;;;;;;10.19;7.06;;;;;;;11.67;63.95;100541.55;454521;116;930860;-79
2021/09/21 03:46:51;;;;;;;10.78;7.76;;;;;;;11.67;63.92;100544.28;454049;116;930457;-80
2021/09/21 03:47:55;;;;;;;10.20;6.96;;;;;;;11.65;64.00;100544.50;454484;116;930577;-78
2021/09/21 03:48:58;;;;;;;8.73;7.66;;;;;;;11.66;64.13;100553.53;445962;119;923083;-79
2021/09/21 03:50:03;;;;;;;8.19;7.49;;;;;;;11.68;64.12;100554.16;446094;116;930786;-78
2021/09/21 03:51:07;;;;;;;9.30;7.45;;;;;;;11.68;64.07;100557.73;453766;116;923299;-80
2021/09/21 03:52:11;;;;;;;8.13;7.34;;;;;;;11.70;64.12;100550.13;453853;117;923186;-79
2021/09/21 03:53:14;;;;;;;8.64;7.41;;;;;;;11.74;64.07;100558.77;453839;116;930385;-79
2021/09/21 03:54:18;;;;;;;8.14;7.17;;;;;;;11.76;63.98;100556.63;454415;115;922614;-79
2021/09/21 03:55:22;;;;;;;7.73;7.04;;;;;;;11.80;64.01;100557.04;454347;116;930674;-79
2021/09/21 03:56:26;;;;;;;10.24;7.71;;;;;;;11.83;63.95;100559.31;453809;116;930391;-80
2021/09/21 03:57:30;;;;;;;8.03;7.28;;;;;;;11.85;63.86;100551.73;453512;116;922492;-78
2021/09/21 03:58:34;;;;;;;10.85;8.12;;;;;;;11.88;63.88;100554.00;453966;116;930339;-79
2021/09/21 03:59:37;;;;;;;9.93;8.81;;;;;;;11.91;63.93;100548.11;454450;116;930476;-79
2021/09/21 04:00:42;;;;;;;8.85;8.13;;;;;;;11.93;63.86;100544.08;453646;116;930575;-79
2021/09/21 04:01:46;;;;;;;8.42;7.68;;;;;;;11.98;63.79;100543.39;454815;116;922473;-81
2021/09/21 04:02:50;;;;;;;12.45;7.96;;;;;;;12.00;63.69;100542.13;454311;116;922383;-79
2021/09/21 04:03:53;;;;;;;8.85;7.94;;;;;;;12.03;63.59;100536.20;445679;119;922647;-78
2021/09/21 04:04:57;;;;;;;9.81;8.91;;;;;;;12.06;63.46;100541.23;446382;116;922600;-80
2021/09/21 04:06:02;;;;;;;8.76;7.80;;;;;;;12.07;63.29;100534.67;453238;114;923168;-78
2021/09/21 04:07:07;;;;;;;9.64;8.21;;;;;;;12.08;63.26;100544.55;453335;116;922438;-78
2021/09/21 04:08:10;;;;;;;9.21;8.18;;;;;;;12.07;63.20;100548.34;452758;114;922423;-78
2021/09/21 04:09:14;;;;;;;8.64;7.89;;;;;;;12.06;63.14;100546.69;453725;116;922350;-79
2021/09/21 04:10:19;;;;;;;10.44;7.65;;;;;;;12.05;63.16;100546.91;455312;116;930289;-77
2021/09/21 04:11:23;;;;;;;13.12;8.88;;;;;;;12.05;63.22;100547.75;454811;114;922846;-79
2021/09/21 04:12:26;;;;;;;8.62;7.92;;;;;;;12.06;63.23;100552.16;455099;116;924430;-79
2021/09/21 04:13:30;;;;;;;8.52;7.76;;;;;;;12.06;63.25;100545.86;454094;116;922167;-79
2021/09/21 04:14:35;;;;;;;7.96;6.97;;;;;;;12.08;63.23;100550.02;453524;116;930772;-78
2021/09/21 04:15:41;;;;;;;8.55;7.09;;;;;;;12.10;63.13;100538.87;454589;116;922496;-79
2021/09/21 04:16:46;;;;;;;7.76;7.07;;;;;;;12.09;63.15;100529.83;453240;114;922285;-78
2021/09/21 04:17:50;;;;;;;8.74;7.91;;;;;;;12.13;63.16;100537.59;454323;116;922640;-78
2021/09/21 04:18:53;;;;;;;7.40;6.72;;;;;;;12.16;63.19;100531.66;454230;116;930527;-77
2021/09/21 04:19:57;;;;;;;9.03;7.07;;;;;;;12.17;63.05;100533.34;454107;116;930538;-77
2021/09/21 04:21:01;;;;;;;9.07;6.34;;;;;;;12.16;62.93;100531.66;453623;114;923872;-77
2021/09/21 04:22:06;;;;;;;7.38;6.74;;;;;;;12.13;62.90;100532.13;452792;115;922695;-79
2021/09/21 04:23:10;;;;;;;7.01;6.46;;;;;;;12.12;63.01;100531.30;454000;116;922572;-78
2021/09/21 04:24:13;;;;;;;7.84;6.97;;;;;;;12.13;63.13;100532.13;453875;116;922553;-77
2021/09/21 04:25:17;;;;;;;7.53;6.78;;;;;;;12.13;63.04;100528.31;453789;114;930466;-78
2021/09/21 04:26:22;;;;;;;6.85;6.13;;;;;;;12.13;63.03;100528.31;453721;115;923056;-79
2021/09/21 04:27:27;;;;;;;7.47;6.84;;;;;;;12.13;63.01;100528.31;452732;116;922408;-80
2021/09/21 04:28:30;;;;;;;9.35;7.28;;;;;;;12.15;63.03;100527.25;453663;116;922564;-79
2021/09/21 04:29:36;;;;;;;8.17;7.21;;;;;;;12.13;62.99;100520.11;452126;115;923120;-79
2021/09/21 04:30:42;;;;;;;7.75;6.96;;;;;;;12.12;63.02;100520.36;452914;115;922495;-76
2021/09/21 04:31:48;;;;;;;7.33;6.69;;;;;;;12.11;63.16;100521.41;453840;116;930503;-79
2021/09/21 04:32:52;;;;;;;13.68;7.31;;;;;;;12.11;63.18;100524.98;452496;116;923149;-80
2021/09/21 04:33:56;;;;;;;13.05;7.14;;;;;;;12.10;63.21;100522.47;453326;114;922870;-78
2021/09/21 04:35:04;;;;;;;8.21;7.35;;;;;;;12.08;63.33;100519.95;453918;115;922896;-76
2021/09/21 04:36:07;;;;;;;8.92;7.39;;;;;;;12.07;63.40;100523.74;454188;114;922915;-79
2021/09/21 04:37:11;;;;;;;7.75;6.64;;;;;;;12.07;63.53;100534.67;453700;116;922955;-84
2021/09/21 04:38:14;;;;;;;7.94;6.65;;;;;;;12.08;63.59;100519.12;440815;119;922687;-80
2021/09/21 04:39:18;;;;;;;8.86;7.32;;;;;;;12.09;63.53;100527.09;442992;116;923098;-79
2021/09/21 04:40:22;;;;;;;8.78;7.45;;;;;;;12.09;63.58;100527.09;453993;115;923480;-77
2021/09/21 04:41:27;;;;;;;8.29;7.07;;;;;;;12.11;63.61;100529.61;454523;116;922503;-83
2021/09/21 04:42:31;;;;;;;7.81;7.14;;;;;;;12.14;63.69;100529.15;453956;116;930734;-78
2021/09/21 04:43:37;;;;;;;8.24;7.39;;;;;;;12.17;63.76;100534.18;454416;116;922648;-80
2021/09/21 04:44:41;;;;;;;8.09;7.21;;;;;;;12.24;63.75;100534.11;454128;116;923105;-80
2021/09/21 04:45:45;;;;;;;10.93;7.33;;;;;;;12.28;63.60;100536.16;453675;115;922600;-79
2021/09/21 04:46:51;;;;;;;7.37;6.71;;;;;;;12.32;63.49;100542.00;453589;116;930722;-81
2021/09/21 04:47:55;;;;;;;8.36;7.55;;;;;;;12.34;63.42;100539.89;453764;116;922546;-81
2021/09/21 04:48:58;;;;;;;9.22;7.42;;;;;;;12.36;63.33;100537.73;444261;118;924289;-84
2021/09/21 04:50:04;;;;;;;8.64;7.82;;;;;;;12.39;63.09;100537.30;445252;116;923455;-79
2021/09/21 04:51:07;;;;;;;8.78;7.66;;;;;;;12.39;63.09;100537.30;454104;114;930608;-80
2021/09/21 04:52:14;;;;;;;8.87;8.08;;;;;;;12.40;63.32;100534.34;453736;116;922936;-80
2021/09/21 04:53:18;;;;;;;8.02;7.37;;;;;;;12.43;63.36;100536.61;454241;116;922924;-79
2021/09/21 04:54:22;;;;;;;7.93;7.04;;;;;;;12.45;63.21;100531.77;454676;115;922593;-79
2021/09/21 04:55:28;;;;;;;9.17;7.66;;;;;;;12.48;63.17;100538.66;454053;116;922648;-79
2021/09/21 04:56:32;;;;;;;8.13;7.43;;;;;;;12.49;63.06;100532.97;454574;116;922588;-78
2021/09/21 04:57:36;;;;;;;7.58;6.90;;;;;;;12.51;62.96;100530.02;455659;115;922834;-79
2021/09/21 04:58:40;;;;;;;8.65;6.99;;;;;;;12.53;62.90;100530.60;455528;115;922351;-81
2021/09/21 04:59:43;;;;;;;8.58;7.78;;;;;;;12.54;62.86;100529.55;455533;115;922692;-79
2021/09/21 05:00:54;;;;;;;11.41;8.02;;;;;;;12.56;63.00;100527.42;454790;116;930215;-81
2021/09/21 05:01:54;;;;;;;9.68;6.82;;;;;;;12.58;62.90;100529.91;453663;115;922682;-79
2021/09/21 05:02:58;;;;;;;8.31;6.93;;;;;;;12.58;62.89;100533.48;454539;116;923090;-80
2021/09/21 05:04:02;;;;;;;8.44;7.13;;;;;;;12.60;62.92;100531.36;454463;115;930373;-80
2021/09/21 05:05:06;;;;;;;8.83;7.18;;;;;;;12.62;62.83;100531.98;453707;116;922546;-80
2021/09/21 05:06:11;;;;;;;8.38;7.08;;;;;;;12.64;62.77;100527.09;454451;116;922603;-81